createdAt,value
2018-06-23T00:02:30.350Z,67.10
2018-06-23T00:05:10.851Z,67.30
2018-06-23T00:07:50.557Z,67.20
2018-06-23T00:10:30.648Z,66.00
2018-06-23T00:13:10.377Z,65.90
2018-06-23T00:15:50.075Z,65.30
2018-06-23T00:18:27.458Z,64.90
2018-06-23T00:21:06.256Z,66.00
2018-06-23T00:23:43.760Z,66.40
2018-06-23T00:26:26.219Z,66.10
2018-06-23T00:29:04.293Z,66.20
2018-06-23T00:31:41.389Z,66.10
2018-06-23T00:34:21.350Z,66.40
2018-06-23T00:36:58.171Z,67.00
2018-06-23T00:39:35.933Z,67.00
2018-06-23T00:42:14.255Z,66.90
2018-06-23T00:44:52.300Z,67.10
2018-06-23T00:47:31.219Z,67.50
2018-06-23T00:50:08.820Z,67.80
2018-06-23T00:52:48.899Z,67.20
2018-06-23T00:55:26.864Z,66.30
2018-06-23T00:58:04.661Z,66.80
2018-06-23T01:00:41.298Z,66.30
2018-06-23T01:03:21.529Z,66.70
2018-06-23T01:05:59.181Z,66.60
2018-06-23T01:08:40.300Z,67.70
2018-06-23T01:11:20.273Z,68.40
2018-06-23T01:13:52.525Z,68.30
2018-06-23T01:16:29.528Z,67.80
2018-06-23T01:19:09.380Z,67.50
2018-06-23T01:21:49.552Z,67.60
2018-06-23T01:24:29.803Z,67.70
2018-06-23T01:27:06.691Z,68.10
2018-06-23T01:29:47.040Z,67.80
2018-06-23T01:32:27.091Z,67.90
2018-06-23T01:35:05.214Z,68.30
2018-06-23T01:37:43.547Z,68.10
2018-06-23T01:40:19.023Z,67.40
2018-06-23T01:42:59.139Z,67.20
2018-06-23T01:45:38.886Z,67.40
2018-06-23T01:48:17.389Z,68.50
2018-06-23T01:50:57.210Z,68.30
2018-06-23T01:53:34.789Z,69.30
2018-06-23T01:56:14.871Z,67.90
2018-06-23T01:58:54.838Z,67.10
2018-06-23T02:01:34.748Z,68.00
2018-06-23T02:04:10.540Z,67.10
2018-06-23T02:06:50.781Z,67.60
2018-06-23T02:09:30.775Z,69.20
2018-06-23T02:12:11.059Z,69.70
2018-06-23T02:14:56.071Z,70.40
2018-06-23T02:17:41.130Z,69.20
2018-06-23T02:20:26.318Z,68.60
2018-06-23T02:24:13.412Z,69.70
2018-06-23T02:26:58.220Z,70.20
2018-06-23T02:29:43.181Z,70.40
2018-06-23T02:32:27.951Z,71.30
2018-06-23T02:35:09.241Z,70.40
2018-06-23T02:37:49.288Z,69.70
2018-06-23T02:40:29.137Z,70.50
2018-06-23T02:43:08.892Z,70.50
2018-06-23T02:45:49.142Z,69.80
2018-06-23T02:48:29.193Z,68.40
2018-06-23T02:51:09.169Z,65.70
2018-06-23T02:53:49.443Z,67.30
2018-06-23T02:56:29.268Z,66.40
2018-06-23T02:59:04.982Z,67.20
2018-06-23T03:01:45.086Z,67.80
2018-06-23T03:04:19.146Z,67.80
2018-06-23T03:06:54.758Z,68.40
2018-06-23T03:09:27.568Z,67.50
2018-06-23T03:12:05.887Z,69.00
2018-06-23T03:17:22.116Z,66.70
2018-06-23T03:19:59.317Z,66.90
2018-06-23T03:22:39.622Z,66.70
2018-06-23T03:25:18.447Z,66.30
2018-06-23T03:27:55.892Z,66.10
2018-06-23T03:30:36.025Z,64.70
2018-06-23T03:33:13.271Z,64.30
2018-06-23T03:35:48.666Z,64.00
2018-06-23T03:38:25.924Z,63.20
2018-06-23T03:41:02.071Z,60.10
2018-06-23T03:43:34.104Z,59.60
2018-06-23T03:46:10.192Z,60.10
2018-06-23T03:48:48.551Z,61.10
2018-06-23T03:51:26.816Z,59.30
2018-06-23T03:54:03.175Z,59.10
2018-06-23T03:56:40.587Z,59.70
2018-06-23T03:59:12.237Z,60.20
2018-06-23T04:01:42.938Z,60.30
2018-06-23T04:04:22.942Z,61.50
2018-06-23T04:07:03.124Z,60.40
2018-06-23T04:09:43.353Z,60.00
2018-06-23T04:12:23.404Z,61.40
2018-06-23T04:15:03.266Z,61.40
2018-06-23T04:17:43.165Z,61.60
2018-06-23T04:20:23.641Z,60.00
2018-06-23T04:23:04.057Z,59.10
2018-06-23T04:25:44.262Z,58.10
2018-06-23T04:28:21.581Z,57.60
2018-06-23T04:31:00.135Z,59.10
2018-06-23T04:33:39.896Z,58.70
2018-06-23T04:36:19.492Z,58.70
2018-06-23T04:38:52.332Z,59.60
2018-06-23T04:41:27.502Z,57.70
2018-06-23T04:44:04.077Z,57.00
2018-06-23T04:46:36.037Z,58.10
2018-06-23T04:49:12.872Z,57.40
2018-06-23T04:51:49.683Z,57.60
2018-06-23T04:54:26.909Z,56.30
2018-06-23T04:57:07.135Z,56.50
2018-06-23T04:59:44.020Z,56.20
2018-06-23T05:02:20.995Z,56.40
2018-06-23T05:04:57.954Z,57.20
2018-06-23T05:07:35.420Z,56.80
2018-06-23T05:10:15.647Z,56.80
2018-06-23T05:12:51.886Z,56.00
2018-06-23T05:15:29.035Z,55.30
2018-06-23T05:18:08.523Z,54.40
2018-06-23T05:20:48.280Z,55.30
2018-06-23T05:23:23.887Z,54.70
2018-06-23T05:25:55.940Z,54.90
2018-06-23T05:28:34.239Z,54.70
2018-06-23T05:31:14.495Z,54.90
2018-06-23T05:33:54.795Z,55.70
2018-06-23T05:36:30.714Z,54.90
2018-06-23T05:39:09.385Z,55.20
2018-06-23T05:41:45.666Z,55.50
2018-06-23T05:44:26.369Z,56.50
2018-06-23T05:47:06.539Z,56.20
2018-06-23T05:49:42.928Z,57.80
2018-06-23T05:52:23.337Z,57.10
2018-06-23T05:55:03.516Z,57.50
2018-06-23T05:57:44.057Z,58.30
2018-06-23T06:00:15.857Z,57.60
2018-06-23T06:02:47.547Z,58.10
2018-06-23T06:05:27.913Z,57.50
2018-06-23T06:08:07.811Z,57.10
2018-06-23T06:10:47.805Z,56.80
2018-06-23T06:13:26.184Z,55.40
2018-06-23T06:16:03.978Z,55.50
2018-06-23T06:18:44.033Z,55.80
2018-06-23T06:21:24.500Z,55.50
2018-06-23T06:24:05.041Z,56.00
2018-06-23T06:26:40.644Z,55.00
2018-06-23T06:29:20.631Z,54.00
2018-06-23T06:31:52.511Z,54.40
2018-06-23T06:34:25.971Z,54.60
2018-06-23T06:37:01.315Z,55.00
2018-06-23T06:39:37.124Z,54.60
2018-06-23T06:42:17.491Z,54.20
2018-06-23T06:44:55.697Z,52.30
2018-06-23T06:47:35.399Z,51.10
2018-06-23T06:50:12.715Z,50.80
2018-06-23T06:52:52.495Z,50.60
2018-06-23T06:55:29.982Z,50.30
2018-06-23T06:58:09.874Z,51.00
2018-06-23T07:00:50.006Z,51.00
2018-06-23T07:03:29.946Z,51.90
2018-06-23T07:06:07.937Z,51.00
2018-06-23T07:08:49.541Z,49.70
2018-06-23T07:11:29.438Z,49.90
2018-06-23T07:14:08.360Z,50.60
2018-06-23T07:16:48.074Z,50.00
2018-06-23T07:19:24.022Z,50.00
2018-06-23T07:22:04.223Z,48.70
2018-06-23T07:24:42.781Z,47.90
2018-06-23T07:27:14.702Z,48.40
2018-06-23T07:29:45.980Z,48.70
2018-06-23T07:32:17.101Z,47.80
2018-06-23T07:34:58.384Z,47.70
2018-06-23T07:37:38.291Z,48.10
2018-06-23T07:40:17.927Z,48.40
2018-06-23T07:42:57.710Z,48.90
2018-06-23T07:45:38.156Z,49.00
2018-06-23T07:48:18.638Z,48.40
2018-06-23T07:50:50.796Z,49.00
2018-06-23T07:53:25.826Z,47.30
2018-06-23T07:56:06.528Z,47.30
2018-06-23T07:58:46.624Z,47.60
2018-06-23T08:01:18.917Z,46.30
2018-06-23T08:03:50.944Z,45.70
2018-06-23T08:06:32.215Z,44.50
2018-06-23T08:09:12.328Z,44.00
2018-06-23T08:11:52.864Z,44.40
2018-06-23T08:14:31.730Z,43.20
2018-06-23T08:17:11.809Z,42.60
2018-06-23T08:19:45.040Z,43.90
2018-06-23T08:22:26.690Z,43.90
2018-06-23T08:25:06.817Z,44.80
2018-06-23T08:27:44.471Z,44.50
2018-06-23T08:30:41.146Z,44.70
2018-06-23T08:33:26.130Z,43.70
2018-06-23T08:36:02.839Z,42.60
2018-06-23T08:38:43.533Z,42.00
2018-06-23T08:41:23.473Z,42.70
2018-06-23T08:44:03.288Z,43.60
2018-06-23T08:46:42.735Z,42.40
2018-06-23T08:49:21.545Z,42.20
2018-06-23T08:52:01.538Z,41.80
2018-06-23T08:54:41.384Z,39.50
2018-06-23T08:57:21.419Z,37.30
2018-06-23T09:00:01.707Z,32.60
2018-06-23T09:02:40.978Z,30.50
2018-06-23T09:05:19.494Z,31.70
2018-06-23T09:07:59.799Z,33.40
2018-06-23T09:10:40.494Z,32.20
2018-06-23T09:13:23.727Z,28.90
2018-06-23T09:16:04.508Z,26.80
2018-06-23T09:18:46.596Z,24.10
2018-06-23T09:21:22.214Z,22.60
2018-06-23T09:24:02.225Z,21.10
2018-06-23T09:26:42.288Z,21.80
2018-06-23T09:29:22.977Z,21.10
2018-06-23T09:32:02.780Z,21.30
2018-06-23T09:34:39.938Z,20.10
2018-06-23T09:37:17.021Z,19.10
2018-06-23T09:39:58.405Z,19.20
2018-06-23T09:42:38.332Z,18.50
2018-06-23T09:45:19.230Z,19.20
2018-06-23T09:47:58.997Z,19.50
2018-06-23T09:50:39.066Z,22.50
2018-06-23T09:53:17.334Z,25.30
2018-06-23T09:55:57.848Z,27.80
2018-06-23T09:58:38.851Z,27.60
2018-06-23T10:01:20.000Z,29.70
2018-06-23T10:03:56.352Z,27.90
2018-06-23T10:06:37.289Z,25.20
2018-06-23T10:09:17.896Z,21.70
2018-06-23T10:11:57.976Z,22.60
2018-06-23T10:14:38.250Z,23.10
2018-06-23T10:17:18.590Z,25.40
2018-06-23T10:19:58.819Z,26.60
2018-06-23T10:22:38.827Z,24.60
2018-06-23T10:25:12.311Z,24.70
2018-06-23T10:27:53.200Z,24.20
2018-06-23T10:30:25.563Z,26.10
2018-06-23T10:33:05.777Z,25.90
2018-06-23T10:35:45.866Z,24.00
2018-06-23T10:38:27.588Z,26.70
2018-06-23T10:41:07.708Z,27.70
2018-06-23T10:43:47.842Z,26.40
2018-06-23T10:46:28.064Z,26.20
2018-06-23T10:49:08.412Z,26.70
2018-06-23T10:51:48.876Z,27.80
2018-06-23T10:54:28.532Z,27.80
2018-06-23T10:57:08.824Z,28.90
2018-06-23T10:59:48.720Z,31.70
2018-06-23T11:02:28.787Z,33.00
2018-06-23T11:05:09.085Z,34.60
2018-06-23T11:07:49.544Z,34.70
2018-06-23T11:10:29.391Z,33.70
2018-06-23T11:13:09.255Z,30.10
2018-06-23T11:15:47.274Z,28.10
2018-06-23T11:18:24.124Z,27.90
2018-06-23T11:21:04.331Z,29.20
2018-06-23T11:23:38.178Z,29.70
2018-06-23T11:26:13.578Z,29.20
2018-06-23T11:29:01.617Z,29.10
2018-06-23T11:31:42.152Z,28.20
2018-06-23T11:34:21.160Z,27.40
2018-06-23T11:37:01.292Z,28.10
2018-06-23T11:39:39.555Z,29.40
2018-06-23T11:42:15.733Z,31.70
2018-06-23T11:44:52.437Z,32.10
2018-06-23T11:47:32.588Z,31.00
2018-06-23T11:50:13.003Z,30.00
2018-06-23T11:52:53.027Z,29.70
2018-06-23T11:55:34.479Z,30.10
2018-06-23T11:58:14.270Z,29.40
2018-06-23T12:00:46.839Z,30.20
2018-06-23T12:03:18.705Z,30.10
2018-06-23T12:06:00.022Z,30.70
2018-06-23T12:08:40.068Z,29.80
2018-06-23T12:11:20.407Z,31.10
2018-06-23T12:14:00.519Z,31.20
2018-06-23T12:16:40.907Z,32.40
2018-06-23T12:19:21.241Z,33.70
2018-06-23T12:22:01.428Z,34.10
2018-06-23T12:24:42.329Z,33.20
2018-06-23T12:27:22.755Z,33.50
2018-06-23T12:30:02.773Z,34.10
2018-06-23T12:32:43.285Z,35.00
2018-06-23T12:35:24.330Z,34.40
2018-06-23T12:38:04.473Z,34.00
2018-06-23T12:40:42.169Z,35.10
2018-06-23T12:43:22.379Z,36.60
2018-06-23T12:46:03.186Z,36.30
2018-06-23T12:48:40.788Z,37.30
2018-06-23T12:51:18.599Z,36.10
2018-06-23T12:53:59.216Z,35.60
2018-06-23T12:56:35.437Z,35.50
2018-06-23T12:59:10.931Z,37.00
2018-06-23T13:01:48.403Z,36.20
2018-06-23T13:04:24.503Z,36.00
2018-06-23T13:07:00.241Z,37.20
2018-06-23T13:09:37.151Z,37.90
2018-06-23T13:12:17.898Z,36.60
2018-06-23T13:17:33.478Z,35.80
2018-06-23T13:20:10.424Z,38.60
2018-06-23T13:22:51.511Z,34.30
2018-06-23T13:25:31.349Z,34.10
2018-06-23T13:28:11.347Z,34.10
2018-06-23T13:30:52.069Z,34.40
2018-06-23T13:33:32.442Z,34.50
2018-06-23T13:36:12.642Z,33.50
2018-06-23T13:38:52.911Z,35.20
2018-06-23T13:41:32.530Z,34.10
2018-06-23T13:44:12.694Z,34.30
2018-06-23T13:46:53.052Z,34.40
2018-06-23T13:49:33.308Z,34.30
2018-06-23T13:52:13.968Z,33.20
2018-06-23T13:54:54.156Z,33.80
2018-06-23T13:57:34.422Z,35.50
2018-06-23T14:00:07.053Z,35.00
2018-06-23T14:02:43.046Z,35.80
2018-06-23T14:05:23.279Z,36.10
2018-06-23T14:08:03.749Z,35.80
2018-06-23T14:10:40.951Z,35.30
2018-06-23T14:13:17.262Z,36.00
2018-06-23T14:15:50.101Z,36.80
2018-06-23T14:18:21.491Z,34.70
2018-06-23T14:21:02.643Z,35.00
2018-06-23T14:23:43.046Z,36.20
2018-06-23T14:26:23.406Z,34.20
2018-06-23T14:29:03.491Z,35.00
2018-06-23T14:31:43.941Z,35.00
2018-06-23T14:34:19.632Z,34.70
2018-06-23T14:36:59.687Z,36.00
2018-06-23T14:39:40.130Z,35.70
2018-06-23T14:42:20.419Z,36.40
2018-06-23T14:44:57.459Z,34.80
2018-06-23T14:47:33.160Z,35.30
2018-06-23T14:50:09.796Z,36.30
2018-06-23T14:52:50.097Z,37.20
2018-06-23T14:55:30.374Z,37.80
2018-06-23T14:58:12.545Z,37.50
2018-06-23T15:00:53.189Z,36.80
2018-06-23T15:03:25.540Z,37.90
2018-06-23T15:06:02.239Z,37.20
2018-06-23T15:08:44.084Z,38.80
2018-06-23T15:11:26.051Z,38.20
2018-06-23T15:14:06.619Z,36.90
2018-06-23T15:16:44.962Z,37.50
2018-06-23T15:19:24.993Z,37.80
2018-06-23T15:22:05.515Z,37.20
2018-06-23T15:24:46.231Z,38.80
2018-06-23T15:27:24.764Z,36.80
2018-06-23T15:29:56.724Z,38.00
2018-06-23T15:32:28.582Z,37.70
2018-06-23T15:35:09.336Z,37.80
2018-06-23T15:37:49.563Z,38.80
2018-06-23T15:40:34.658Z,38.70
2018-06-23T15:43:15.125Z,38.80
2018-06-23T15:45:55.776Z,38.90
2018-06-23T15:48:34.649Z,39.60
2018-06-23T15:51:12.343Z,38.00
2018-06-23T15:53:46.122Z,37.90
2018-06-23T15:56:25.018Z,38.00
2018-06-23T15:58:58.528Z,38.30
2018-06-23T16:01:37.021Z,38.50
2018-06-23T16:04:13.672Z,39.40
2018-06-23T16:06:53.845Z,38.50
2018-06-23T16:09:34.053Z,38.90
2018-06-23T16:12:14.977Z,39.30
2018-06-23T16:14:56.419Z,40.20
2018-06-23T16:17:37.193Z,40.50
2018-06-23T16:20:17.676Z,40.50
2018-06-23T16:22:58.138Z,40.10
2018-06-23T16:25:38.216Z,40.90
2018-06-23T16:28:18.347Z,41.10
2018-06-23T16:30:50.127Z,41.40
2018-06-23T16:33:23.476Z,41.90
2018-06-23T16:36:03.727Z,41.60
2018-06-23T16:38:44.334Z,42.10
2018-06-23T16:41:24.452Z,42.30
2018-06-23T16:44:04.839Z,42.10
2018-06-23T16:46:44.536Z,43.10
2018-06-23T16:49:24.188Z,43.60
2018-06-23T16:52:04.387Z,43.20
2018-06-23T16:54:45.533Z,43.20
2018-06-23T16:57:26.219Z,43.20
2018-06-23T17:00:06.718Z,43.50
2018-06-23T17:02:47.465Z,44.70
2018-06-23T17:05:26.019Z,45.00
2018-06-23T17:08:03.949Z,44.30
2018-06-23T17:10:41.379Z,44.30
2018-06-23T17:13:17.128Z,44.30
2018-06-23T17:15:53.837Z,44.40
2018-06-23T17:18:30.633Z,44.10
2018-06-23T17:21:10.589Z,44.30
2018-06-23T17:23:51.588Z,44.40
2018-06-23T17:26:31.850Z,44.30
2018-06-23T17:29:12.876Z,44.40
2018-06-23T17:31:53.604Z,44.90
2018-06-23T17:34:34.362Z,44.80
2018-06-23T17:37:08.487Z,44.70
2018-06-23T17:39:46.434Z,45.50
2018-06-23T17:42:26.455Z,45.10
2018-06-23T17:45:06.590Z,45.20
2018-06-23T17:47:46.093Z,45.30
2018-06-23T17:50:26.857Z,45.00
2018-06-23T17:53:04.161Z,44.90
2018-06-23T17:55:38.039Z,44.70
2018-06-23T17:58:15.044Z,44.60
2018-06-23T18:00:48.762Z,44.80
2018-06-23T18:03:22.862Z,45.20
2018-06-23T18:06:02.812Z,45.20
2018-06-23T18:08:43.028Z,45.20
2018-06-23T18:11:30.376Z,45.30
2018-06-23T18:14:16.871Z,45.20
2018-06-23T18:16:57.204Z,45.20
2018-06-23T18:19:37.328Z,46.50
2018-06-23T18:22:27.964Z,46.10
2018-06-23T18:25:12.125Z,46.40
2018-06-23T18:27:57.617Z,47.60
2018-06-23T18:30:36.749Z,47.70
2018-06-23T18:33:17.241Z,48.40
2018-06-23T18:35:51.500Z,47.80
2018-06-23T18:38:37.240Z,47.40
2018-06-23T18:41:29.133Z,47.80
2018-06-23T18:44:10.127Z,47.50
2018-06-23T18:46:54.925Z,48.00
2018-06-23T18:49:34.843Z,48.30
2018-06-23T18:52:14.804Z,48.90
2018-06-23T18:54:55.261Z,49.20
2018-06-23T18:57:34.866Z,49.50
2018-06-23T19:00:15.648Z,50.10
2018-06-23T19:02:54.710Z,50.50
2018-06-23T19:05:32.980Z,51.00
2018-06-23T19:08:11.864Z,51.00
2018-06-23T19:11:08.500Z,51.20
2018-06-23T19:13:53.336Z,51.10
2018-06-23T19:16:34.241Z,51.60
2018-06-23T19:19:17.915Z,52.50
2018-06-23T19:21:58.905Z,53.40
2018-06-23T19:24:39.674Z,54.20
2018-06-23T19:27:15.490Z,55.30
2018-06-23T19:29:57.741Z,56.30
2018-06-23T19:32:39.193Z,56.90
2018-06-23T19:35:19.448Z,57.20
2018-06-23T19:38:07.572Z,57.30
2018-06-23T19:40:48.598Z,58.70
2018-06-23T19:43:30.274Z,59.50
2018-06-23T19:46:10.731Z,58.20
2018-06-23T19:48:51.621Z,60.20
2018-06-23T19:51:33.552Z,60.40
2018-06-23T19:54:13.573Z,59.90
2018-06-23T19:56:53.669Z,59.30
2018-06-23T19:59:34.995Z,58.30
2018-06-23T20:02:15.239Z,57.60
2018-06-23T20:04:50.680Z,56.90
2018-06-23T20:07:31.293Z,56.50
2018-06-23T20:10:09.924Z,56.80
2018-06-23T20:12:48.574Z,57.70
2018-06-23T20:15:28.809Z,57.80
2018-06-23T20:18:09.127Z,57.40
2018-06-23T20:20:44.455Z,57.60
2018-06-23T20:23:23.615Z,57.70
2018-06-23T20:26:01.476Z,57.70
2018-06-23T20:28:41.956Z,58.20
2018-06-23T20:31:23.600Z,58.00
2018-06-23T20:34:04.227Z,57.20
2018-06-23T20:36:42.690Z,57.80
2018-06-23T20:39:19.769Z,58.10
2018-06-23T20:42:01.850Z,57.80
2018-06-23T20:44:41.790Z,58.30
2018-06-23T20:47:17.433Z,58.50
2018-06-23T20:49:54.880Z,58.00
2018-06-23T20:52:33.543Z,58.50
2018-06-23T20:55:11.920Z,58.30
2018-06-23T20:57:52.335Z,58.90
2018-06-23T21:00:32.285Z,58.70
2018-06-23T21:03:12.281Z,58.80
2018-06-23T21:05:49.846Z,58.60
2018-06-23T21:08:25.958Z,58.70
2018-06-23T21:11:03.685Z,57.40
2018-06-23T21:13:43.839Z,58.00
2018-06-23T21:16:15.147Z,58.40
2018-06-23T21:18:46.896Z,59.60
2018-06-23T21:21:27.248Z,58.80
2018-06-23T21:24:07.385Z,59.10
2018-06-23T21:26:47.564Z,59.10
2018-06-23T21:29:28.017Z,59.40
2018-06-23T21:32:08.434Z,59.50
2018-06-23T21:34:48.743Z,59.40
2018-06-23T21:37:29.213Z,59.70
2018-06-23T21:40:09.590Z,60.60
2018-06-23T21:42:47.381Z,61.90
2018-06-23T21:45:24.069Z,62.10
2018-06-23T21:47:58.169Z,63.00
2018-06-23T21:50:34.400Z,64.90
2018-06-23T21:53:10.561Z,65.30
2018-06-23T21:55:46.521Z,67.30
2018-06-23T21:58:21.676Z,66.70
2018-06-23T22:00:58.849Z,66.70
2018-06-23T22:06:18.344Z,66.80
2018-06-23T22:08:51.283Z,68.10
2018-06-23T22:11:31.348Z,66.20
2018-06-23T22:14:11.547Z,64.50
2018-06-23T22:16:49.983Z,65.20
2018-06-23T22:19:21.973Z,65.30
2018-06-23T22:21:54.131Z,63.80
2018-06-23T22:24:33.994Z,65.00
2018-06-23T22:27:13.917Z,60.60
2018-06-23T22:29:54.019Z,62.00
2018-06-23T22:32:31.257Z,60.30
2018-06-23T22:35:11.568Z,61.70
2018-06-23T22:37:52.520Z,62.50
2018-06-23T22:40:32.480Z,63.60
2018-06-23T22:43:08.415Z,63.20
2018-06-23T22:45:46.187Z,63.30
2018-06-23T22:48:24.278Z,64.30
2018-06-23T22:51:04.204Z,65.00
2018-06-23T22:53:42.476Z,65.70
2018-06-23T22:56:22.589Z,67.10
2018-06-23T22:58:59.593Z,68.40
2018-06-23T23:01:39.796Z,69.80
2018-06-23T23:04:12.427Z,70.40
2018-06-23T23:06:52.648Z,68.90
2018-06-23T23:09:32.899Z,69.30
2018-06-23T23:12:09.967Z,70.80
2018-06-23T23:14:49.836Z,69.70
2018-06-23T23:17:30.375Z,71.10
2018-06-23T23:20:06.447Z,70.80
2018-06-23T23:22:42.533Z,71.90
2018-06-23T23:25:17.763Z,71.30
2018-06-23T23:27:54.318Z,71.00
2018-06-23T23:30:30.188Z,70.50
2018-06-23T23:33:10.068Z,72.30
2018-06-23T23:35:48.234Z,72.90
2018-06-23T23:38:25.788Z,72.50
2018-06-23T23:41:05.898Z,73.20
2018-06-23T23:43:45.860Z,73.80
2018-06-23T23:46:25.987Z,73.30
2018-06-23T23:49:05.852Z,73.30
2018-06-23T23:51:44.895Z,74.90
2018-06-23T23:54:25.570Z,75.30
2018-06-23T23:57:03.093Z,76.20
2018-06-23T23:59:36.315Z,75.80
